Stuie, British Columbia

8:59 PM PDT on July 23, 2017 (GMT -0700)
Bella Coola | | Change Station

Elev 115 ft 52.38 °N, 126.58 °W | Updated 2 hours ago

Clear
Clear
70 °F
Feels Like 70 °F
N
14
Wind Variable Wind from WSW
Gusts 21 mph

Today
High -- | Low -- °F
--% Chance of Precip.
Yesterday
High -- | Low -- °F
Precip. -- in
Pressure 30.14 in
Visibility 15.0 miles
Clouds Few 9000 ft
Dew Point 45 °F
Humidity 40%
Rainfall 0.00 in
Snow Depth Not available.
5:31 AM 9:28 PM
New Moon, 1% visible
METAR CYBD 240100Z 25012G18KT 15SM FEW090 21/07 A3013 RMK AC1 LAST STFD OBS/NEXT 241300 UTC SLP205 DENSITY ALT 700FT
Pressure 30.14 in
Visibility 15.0 miles
Clouds Few 9000 ft
Dew Point 45 °F
Humidity 40%
Rainfall 0.00 in
Snow Depth Not available.
5:31 AM 9:28 PM
New Moon, 1% visible
METAR CYBD 240100Z 25012G18KT 15SM FEW090 21/07 A3013 RMK AC1 LAST STFD OBS/NEXT 241300 UTC SLP205 DENSITY ALT 700FT

Get Severe Weather Alerts

Thanks for signing up!

Be on the lookout for a verification email in your inbox.

You'll start receiving the daily forecast at 6 AM.

×

10-Day Weather Forecast

Almanac

Astronomy

Jul. 23, 2017 Rise Set
Actual Time
Civil Twilight
Nautical Twilight
Astronomical Twilight
Moon
Length of Visible Light
Length of Day
Tomorrow will be .
, % of the Moon is Illuminated

Today's Extremes

Country Highs Country Lows

Community

WunderPhotos

Category 6

Welcome to Category 6. This is the collective home for Weather Underground's featured writeups by Dr. Jeff Masters (right), Bob Henson (left), Chris Burt, and other regular contributors.

Nearby

Air Quality

  Air Quality AQ Index Pollutant
Not available.

Snow Depth

Station Depth Elevation

Earthquake Activity

City Distance Mag. Time & Date
Minimum magnitude displayed is 2.5.

Coastal Water Temperatures

Place Temperature

Stations

Nearby Weather Stations

Station Location Temp. Windchill Dew Point Humidity Wind Precip. Elev Updated Type
                   

Watches & Warnings

There are currently no watches in effect.